Time;durP1;ratioP1;P1;durP2;ratioP2;P2;SDS_P1;SDS_P2;PMS_P1;PMS_P2;Temp;Humidity;BMP_temperature;BMP_pressure;BME280_temperature;BME280_humidity;BME280_pressure;Samples;Min_cycle;Max_cycle;Signal;HPM_P1;HPM_P2
2021/09/15 00:02:10;;;;;;;14.63;13.15;;;15.10;99.90;;;;;;4978372;28;20272;-54
2021/09/15 00:04:38;;;;;;;13.48;12.05;;;15.10;99.90;;;;;;4976092;28;20204;-48
2021/09/15 00:07:04;;;;;;;14.10;12.60;;;15.10;99.90;;;;;;4978611;28;20205;-56
2021/09/15 00:09:32;;;;;;;14.23;12.70;;;15.10;99.90;;;;;;4976707;28;20453;-55
2021/09/15 00:11:59;;;;;;;13.00;11.30;;;15.10;99.90;;;;;;4974096;28;20468;-51
2021/09/15 00:14:26;;;;;;;13.43;12.10;;;15.10;99.90;;;;;;4970870;28;20438;-53
2021/09/15 00:16:53;;;;;;;14.73;12.73;;;15.00;99.90;;;;;;4978964;28;20506;-53
2021/09/15 00:19:21;;;;;;;14.27;12.77;;;14.90;99.90;;;;;;4978206;28;20233;-55
2021/09/15 00:21:48;;;;;;;13.80;12.30;;;15.00;99.90;;;;;;4978187;28;20499;-57
2021/09/15 00:24:15;;;;;;;16.27;14.60;;;14.80;99.90;;;;;;4975725;28;20247;-52
2021/09/15 00:26:42;;;;;;;14.07;12.65;;;14.90;99.90;;;;;;4967763;28;20204;-56
2021/09/15 00:29:10;;;;;;;16.70;14.95;;;14.70;99.90;;;;;;4969244;28;20201;-50
2021/09/15 00:31:37;;;;;;;14.68;13.18;;;14.80;99.90;;;;;;4971500;28;20223;-55
2021/09/15 00:34:04;;;;;;;16.13;13.63;;;14.80;99.90;;;;;;4974891;28;20536;-53
2021/09/15 00:36:31;;;;;;;15.13;13.60;;;14.80;99.90;;;;;;4971502;28;20214;-54
2021/09/15 00:38:58;;;;;;;15.05;13.45;;;14.70;99.90;;;;;;4977581;28;20220;-50
2021/09/15 00:41:25;;;;;;;15.75;14.10;;;14.70;99.90;;;;;;4967289;28;20228;-56
2021/09/15 00:44:00;;;;;;;19.27;14.25;;;14.70;99.90;;;;;;4972091;28;20449;-55
2021/09/15 00:46:28;;;;;;;15.85;14.07;;;14.70;99.90;;;;;;4976370;28;20541;-52
2021/09/15 00:48:56;;;;;;;16.50;14.73;;;14.70;99.90;;;;;;4976961;28;20241;-51
2021/09/15 00:51:23;;;;;;;16.10;14.50;;;14.80;99.90;;;;;;4974284;28;20236;-55
2021/09/15 00:53:51;;;;;;;15.20;13.20;;;14.80;99.90;;;;;;4982195;28;20229;-53
2021/09/15 00:56:19;;;;;;;18.45;15.85;;;14.80;99.90;;;;;;4982244;28;20326;-55
2021/09/15 00:58:46;;;;;;;17.05;14.50;;;14.80;99.90;;;;;;4981859;28;20587;-53
2021/09/15 01:01:13;;;;;;;15.25;13.65;;;14.80;99.90;;;;;;4976047;28;20349;-49
2021/09/15 01:03:40;;;;;;;16.65;14.43;;;14.70;99.90;;;;;;4980228;28;20225;-55
2021/09/15 01:06:08;;;;;;;19.42;15.63;;;14.60;99.90;;;;;;4980723;28;20200;-55
2021/09/15 01:08:35;;;;;;;21.45;17.13;;;14.50;99.90;;;;;;4974497;28;20203;-53
2021/09/15 01:11:03;;;;;;;21.00;17.27;;;14.40;99.90;;;;;;4977179;28;20230;-54
2021/09/15 01:13:31;;;;;;;19.33;16.15;;;14.60;99.90;;;;;;4974827;28;20202;-57
2021/09/15 01:16:00;;;;;;;18.00;14.88;;;14.50;99.90;;;;;;4976655;28;20203;-53
2021/09/15 01:18:27;;;;;;;16.63;14.98;;;14.40;99.90;;;;;;4975994;28;20204;-54
2021/09/15 01:20:55;;;;;;;17.42;15.02;;;14.40;99.90;;;;;;4978129;28;20273;-52
2021/09/15 01:23:22;;;;;;;19.52;17.48;;;14.60;99.90;;;;;;4981359;28;20466;-52
2021/09/15 01:25:50;;;;;;;17.90;16.00;;;14.50;99.90;;;;;;4975819;28;20203;-47
2021/09/15 01:28:17;;;;;;;20.30;17.65;;;14.50;99.90;;;;;;4976357;28;20198;-53
2021/09/15 01:30:45;;;;;;;22.73;17.55;;;14.60;99.90;;;;;;4974390;28;20266;-57
2021/09/15 01:33:14;;;;;;;21.65;17.98;;;14.70;99.90;;;;;;4972898;28;20211;-51
2021/09/15 01:35:43;;;;;;;20.30;17.85;;;14.60;99.90;;;;;;4972847;28;20198;-54
2021/09/15 01:38:11;;;;;;;21.00;17.70;;;14.60;99.90;;;;;;4974323;28;20242;-52
2021/09/15 01:40:39;;;;;;;23.33;16.58;;;14.50;99.90;;;;;;4972621;28;20512;-55
2021/09/15 01:43:06;;;;;;;19.10;16.52;;;14.50;99.90;;;;;;4969967;28;20250;-54
2021/09/15 01:45:34;;;;;;;21.13;18.30;;;14.50;99.90;;;;;;4975700;28;20240;-54
2021/09/15 01:48:01;;;;;;;21.98;16.60;;;14.40;99.90;;;;;;4978507;28;20398;-52
2021/09/15 01:50:28;;;;;;;21.80;18.63;;;14.20;99.90;;;;;;4975701;28;20204;-57
2021/09/15 01:52:55;;;;;;;21.73;18.52;;;14.10;99.90;;;;;;4980918;28;20245;-55
2021/09/15 01:55:26;;;;;;;19.45;17.42;;;14.10;99.90;;;;;;4976236;28;20364;-53
2021/09/15 01:57:54;;;;;;;21.88;19.55;;;14.30;99.90;;;;;;4981135;28;20260;-50
2021/09/15 02:00:21;;;;;;;22.33;17.50;;;14.30;99.90;;;;;;4980814;28;20297;-54
2021/09/15 02:02:50;;;;;;;19.88;17.60;;;14.30;99.90;;;;;;4979044;28;20202;-51
2021/09/15 02:05:17;;;;;;;23.27;19.50;;;14.30;99.90;;;;;;4970384;28;20210;-51
2021/09/15 02:07:45;;;;;;;22.15;17.42;;;14.40;99.90;;;;;;4972622;28;20214;-52
2021/09/15 02:10:12;;;;;;;21.00;18.77;;;14.50;99.90;;;;;;4971069;28;20249;-51
2021/09/15 02:12:39;;;;;;;22.30;17.60;;;14.20;99.90;;;;;;4976120;28;21026;-55
2021/09/15 02:15:09;;;;;;;20.90;16.35;;;14.10;99.90;;;;;;4979621;28;20410;-55
2021/09/15 02:17:37;;;;;;;21.95;19.63;;;14.00;99.90;;;;;;4981275;28;20206;-52
2021/09/15 02:20:06;;;;;;;29.10;21.13;;;13.80;99.90;;;;;;4974083;28;20230;-51
2021/09/15 02:22:34;;;;;;;20.80;17.17;;;13.70;99.90;;;;;;4977867;28;20226;-55
2021/09/15 02:25:04;;;;;;;21.83;19.58;;;13.80;99.90;;;;;;4979105;28;20208;-53
2021/09/15 02:27:31;;;;;;;23.73;17.55;;;13.90;99.90;;;;;;4972035;28;20589;-53
2021/09/15 02:29:58;;;;;;;26.38;18.88;;;13.80;99.90;;;;;;4980602;28;20214;-53
2021/09/15 02:32:25;;;;;;;27.13;20.38;;;13.80;99.90;;;;;;4973746;28;20301;-55
2021/09/15 02:34:53;;;;;;;22.08;18.38;;;13.80;99.90;;;;;;4980453;28;20456;-52
2021/09/15 02:37:20;;;;;;;25.92;21.27;;;13.80;99.90;;;;;;4975254;28;20221;-53
2021/09/15 02:39:47;;;;;;;27.80;18.40;;;13.60;99.90;;;;;;4980004;28;20229;-53
2021/09/15 02:42:14;;;;;;;26.13;19.75;;;13.70;99.90;;;;;;4975071;28;20293;-56
2021/09/15 02:44:41;;;;;;;27.95;19.55;;;13.50;99.90;;;;;;4980425;28;20233;-59
2021/09/15 02:47:08;;;;;;;21.98;19.33;;;13.40;99.90;;;;;;4985611;28;20211;-55
2021/09/15 02:49:35;;;;;;;23.38;19.02;;;13.60;99.90;;;;;;4987540;28;20261;-57
2021/09/15 02:52:03;;;;;;;31.73;23.02;;;13.60;99.90;;;;;;4984342;28;20229;-61
2021/09/15 02:54:30;;;;;;;27.85;21.20;;;13.60;99.90;;;;;;4982639;28;20243;-56
2021/09/15 02:56:57;;;;;;;22.60;19.42;;;13.60;99.90;;;;;;4986136;28;20417;-51
2021/09/15 02:59:24;;;;;;;27.33;19.35;;;13.60;99.90;;;;;;4980651;28;20199;-58
2021/09/15 03:01:52;;;;;;;31.55;22.67;;;13.60;99.90;;;;;;4985355;28;20264;-54
2021/09/15 03:04:19;;;;;;;25.23;22.30;;;13.70;99.90;;;;;;4988576;28;20346;-57
2021/09/15 03:06:46;;;;;;;26.42;22.95;;;13.70;99.90;;;;;;4981219;28;20207;-55
2021/09/15 03:09:13;;;;;;;26.63;22.13;;;13.70;99.90;;;;;;4985278;28;20219;-58
2021/09/15 03:11:41;;;;;;;27.80;22.73;;;13.70;99.90;;;;;;4977842;28;20285;-55
2021/09/15 03:14:08;;;;;;;28.05;23.10;;;13.50;99.90;;;;;;4984834;28;20233;-55
2021/09/15 03:16:36;;;;;;;26.50;22.50;;;13.50;99.90;;;;;;4980109;28;20207;-56
2021/09/15 03:19:03;;;;;;;27.95;24.13;;;13.40;99.90;;;;;;4983303;28;20347;-53
2021/09/15 03:21:30;;;;;;;24.05;20.98;;;13.30;99.90;;;;;;4982949;28;20389;-56
2021/09/15 03:23:57;;;;;;;29.20;23.58;;;13.30;99.90;;;;;;4985705;28;20205;-55
2021/09/15 03:26:24;;;;;;;28.30;22.67;;;13.30;99.90;;;;;;4985766;28;20203;-57
2021/09/15 03:28:51;;;;;;;26.45;22.70;;;13.40;99.90;;;;;;4977698;28;20245;-53
2021/09/15 03:31:18;;;;;;;25.60;21.55;;;13.40;99.90;;;;;;4978743;28;20292;-54
2021/09/15 03:33:46;;;;;;;25.67;21.27;;;13.30;99.90;;;;;;4979193;28;20245;-55
2021/09/15 03:36:13;;;;;;;31.77;24.83;;;13.30;99.90;;;;;;4979316;28;20206;-56
2021/09/15 03:38:40;;;;;;;30.88;21.40;;;13.30;99.90;;;;;;4976179;28;20272;-54
2021/09/15 03:41:07;;;;;;;30.30;23.38;;;13.40;99.90;;;;;;4980170;28;20593;-53
2021/09/15 03:43:34;;;;;;;27.45;22.23;;;13.30;99.90;;;;;;4978487;28;20278;-53
2021/09/15 03:46:01;;;;;;;36.97;27.02;;;13.10;99.90;;;;;;4971631;28;20214;-55
2021/09/15 03:48:29;;;;;;;31.02;23.80;;;13.10;99.90;;;;;;4983134;28;20205;-54
2021/09/15 03:50:56;;;;;;;30.08;23.63;;;13.10;99.90;;;;;;4974739;28;20230;-54
2021/09/15 03:53:23;;;;;;;29.13;23.08;;;13.20;99.90;;;;;;4979661;28;20202;-53
2021/09/15 03:55:50;;;;;;;33.53;24.83;;;13.20;99.90;;;;;;4971352;28;20565;-58
2021/09/15 03:58:18;;;;;;;36.00;25.80;;;13.30;99.90;;;;;;4971983;28;20298;-58
2021/09/15 04:00:46;;;;;;;31.25;22.52;;;13.50;99.90;;;;;;4973399;28;20230;-51
2021/09/15 04:03:13;;;;;;;30.17;26.23;;;13.40;99.90;;;;;;4978183;28;21028;-57
2021/09/15 04:05:40;;;;;;;33.38;25.40;;;13.40;99.90;;;;;;4979139;28;20214;-56
2021/09/15 04:08:07;;;;;;;30.05;22.90;;;13.60;99.90;;;;;;4969155;28;20282;-56
2021/09/15 04:10:35;;;;;;;32.95;23.48;;;13.70;99.90;;;;;;4982479;28;20218;-52
2021/09/15 04:13:02;;;;;;;27.02;23.17;;;13.60;99.90;;;;;;4974310;28;20206;-59
2021/09/15 04:15:29;;;;;;;32.75;24.08;;;13.70;99.90;;;;;;4978872;28;20417;-53
2021/09/15 04:17:56;;;;;;;29.67;24.05;;;13.60;99.90;;;;;;4975471;28;20206;-51
2021/09/15 04:20:24;;;;;;;33.75;24.45;;;13.40;99.90;;;;;;4980128;28;20222;-53
2021/09/15 04:22:51;;;;;;;32.42;23.98;;;13.40;99.90;;;;;;4982451;28;20210;-53
2021/09/15 04:33:36;;;;;;;34.08;24.60;;;13.20;99.90;;;;;;4976762;28;20268;-54
2021/09/15 04:36:04;;;;;;;41.80;28.17;;;13.10;99.90;;;;;;4982005;28;20206;-57
2021/09/15 04:38:31;;;;;;;34.00;26.55;;;13.10;99.90;;;;;;4976063;28;20203;-54
2021/09/15 04:40:59;;;;;;;34.65;26.23;;;13.10;99.90;;;;;;4979007;28;20234;-55
2021/09/15 04:43:26;;;;;;;37.83;25.30;;;13.10;99.90;;;;;;4980533;28;20413;-59
2021/09/15 04:45:53;;;;;;;40.15;28.15;;;13.20;99.90;;;;;;4979455;28;20249;-59
2021/09/15 04:48:21;;;;;;;35.95;28.45;;;13.10;99.90;;;;;;4981378;28;20203;-54
2021/09/15 04:50:48;;;;;;;37.60;27.02;;;13.20;99.90;;;;;;4976560;28;20266;-53
2021/09/15 04:53:15;;;;;;;40.05;28.85;;;13.30;99.90;;;;;;4981961;28;20249;-53
2021/09/15 04:55:42;;;;;;;36.88;26.35;;;13.30;99.90;;;;;;4977202;28;20227;-55
2021/09/15 04:58:09;;;;;;;37.25;26.92;;;13.30;99.90;;;;;;4973525;28;20398;-50
2021/09/15 05:00:37;;;;;;;34.70;27.80;;;13.50;99.90;;;;;;4969294;28;20346;-54
2021/09/15 05:03:04;;;;;;;38.95;27.50;;;13.50;99.90;;;;;;4975192;28;20225;-54
2021/09/15 05:05:31;;;;;;;38.50;27.42;;;13.60;99.90;;;;;;4976379;28;20370;-53
2021/09/15 05:07:58;;;;;;;37.47;27.85;;;13.60;99.90;;;;;;4975489;28;20211;-52
2021/09/15 05:10:26;;;;;;;38.30;27.23;;;13.70;99.90;;;;;;4996641;28;20256;-55
2021/09/15 05:12:54;;;;;;;34.35;26.63;;;13.70;99.90;;;;;;4978229;28;20214;-55
2021/09/15 05:15:22;;;;;;;36.97;27.92;;;13.80;99.90;;;;;;4971002;28;20603;-53
2021/09/15 05:17:50;;;;;;;28.80;24.70;;;13.90;99.90;;;;;;4975223;28;20265;-51
2021/09/15 05:20:18;;;;;;;26.80;23.10;;;13.90;99.90;;;;;;4985357;28;20248;-50
2021/09/15 05:22:46;;;;;;;29.10;23.30;;;14.00;99.90;;;;;;4988326;28;20221;-51
2021/09/15 05:25:14;;;;;;;28.58;23.30;;;14.10;99.90;;;;;;4972643;28;20245;-54
2021/09/15 05:27:42;;;;;;;29.77;25.50;;;14.20;99.90;;;;;;4981490;28;20203;-58
2021/09/15 05:30:10;;;;;;;26.83;23.98;;;14.20;99.90;;;;;;4979545;28;20199;-54
2021/09/15 05:32:38;;;;;;;29.15;25.33;;;14.40;99.90;;;;;;4975601;28;20232;-53
2021/09/15 05:35:07;;;;;;;32.60;25.10;;;14.60;99.90;;;;;;4972113;28;20251;-56
2021/09/15 05:37:35;;;;;;;32.42;26.60;;;14.80;99.90;;;;;;4974087;28;20236;-51
2021/09/15 05:40:02;;;;;;;27.52;21.98;;;15.10;99.90;;;;;;4983711;28;20207;-56
2021/09/15 05:42:30;;;;;;;23.55;21.10;;;15.30;99.90;;;;;;4978701;28;20247;-56
2021/09/15 05:45:02;;;;;;;22.08;19.77;;;15.30;99.90;;;;;;4979744;28;20275;-53
2021/09/15 05:47:30;;;;;;;24.47;18.47;;;15.40;99.90;;;;;;4980010;28;20224;-58
2021/09/15 05:49:58;;;;;;;20.17;18.17;;;15.70;99.90;;;;;;4980798;28;20863;-55
2021/09/15 05:52:26;;;;;;;21.37;19.07;;;16.30;99.90;;;;;;4976443;28;20460;-54
2021/09/15 05:54:53;;;;;;;19.97;18.00;;;16.70;99.90;;;;;;4973770;28;20817;-53
2021/09/15 05:57:21;;;;;;;21.40;16.83;;;16.90;99.90;;;;;;4969545;28;20443;-54
2021/09/15 05:59:48;;;;;;;18.17;16.23;;;17.30;99.90;;;;;;4974031;28;20447;-53
2021/09/15 06:02:15;;;;;;;19.00;17.10;;;17.90;99.90;;;;;;4969881;28;20487;-56
2021/09/15 06:04:42;;;;;;;18.83;16.93;;;19.10;99.90;;;;;;4976859;28;20722;-53
2021/09/15 06:07:10;;;;;;;16.80;15.23;;;20.00;99.90;;;;;;4972092;28;20407;-55
2021/09/15 06:09:37;;;;;;;18.83;16.33;;;20.80;99.90;;;;;;4962557;28;20490;-52
2021/09/15 06:12:05;;;;;;;17.77;15.50;;;21.50;99.90;;;;;;4963791;28;20445;-57
2021/09/15 06:14:32;;;;;;;16.63;15.07;;;22.70;99.90;;;;;;4962681;28;20422;-54
2021/09/15 06:16:59;;;;;;;16.97;15.27;;;23.50;99.90;;;;;;4963197;28;20652;-51
2021/09/15 06:19:26;;;;;;;16.10;14.50;;;23.00;99.90;;;;;;4966246;28;20432;-52
2021/09/15 06:21:54;;;;;;;16.57;14.97;;;22.70;99.90;;;;;;4961278;28;20485;-58
2021/09/15 06:24:21;;;;;;;15.97;14.53;;;22.60;99.90;;;;;;4962085;28;20424;-53
2021/09/15 06:26:48;;;;;;;17.50;15.67;;;22.90;99.90;;;;;;4963989;28;20436;-59
2021/09/15 06:29:16;;;;;;;16.63;15.03;;;24.30;99.90;;;;;;4963086;28;20407;-55
2021/09/15 06:31:43;;;;;;;18.00;16.37;;;25.60;99.90;;;;;;4964886;28;20468;-57
2021/09/15 06:34:11;;;;;;;16.83;15.37;;;26.90;99.90;;;;;;4975941;28;20438;-55
2021/09/15 06:36:40;;;;;;;16.40;15.00;;;27.40;99.90;;;;;;4978523;28;20442;-55
2021/09/15 06:39:08;;;;;;;19.23;17.63;;;27.90;99.90;;;;;;4972833;28;20534;-53
2021/09/15 06:41:35;;;;;;;18.87;17.27;;;28.00;99.90;;;;;;4971679;28;20499;-55
2021/09/15 06:44:02;;;;;;;18.97;17.40;;;28.40;99.00;;;;;;4977103;28;20437;-57
2021/09/15 06:46:29;;;;;;;17.10;15.67;;;28.50;98.80;;;;;;4977751;28;20437;-54
2021/09/15 06:49:00;;;;;;;19.53;17.97;;;29.00;97.00;;;;;;4975193;28;20424;-55
2021/09/15 06:51:27;;;;;;;17.43;16.13;;;29.10;96.50;;;;;;4970045;28;20460;-53
2021/09/15 06:53:54;;;;;;;19.30;17.67;;;29.40;95.40;;;;;;4978908;28;20451;-56
2021/09/15 06:56:21;;;;;;;17.70;16.37;;;29.80;95.60;;;;;;4969162;28;20445;-58
2021/09/15 06:58:49;;;;;;;19.17;17.57;;;30.20;93.70;;;;;;4977245;28;20462;-56
2021/09/15 07:01:16;;;;;;;18.17;16.90;;;31.00;93.20;;;;;;4974641;28;20481;-52
2021/09/15 07:03:43;;;;;;;17.03;15.73;;;31.20;91.60;;;;;;4974958;28;20444;-53
2021/09/15 07:06:10;;;;;;;17.70;16.37;;;29.90;93.00;;;;;;4971606;28;20414;-57
2021/09/15 07:08:38;;;;;;;19.27;17.53;;;29.70;94.20;;;;;;4971636;28;20516;-57
2021/09/15 07:11:09;;;;;;;19.40;17.20;;;28.90;94.20;;;;;;4978049;28;20867;-57
2021/09/15 07:13:37;;;;;;;19.83;18.00;;;30.40;93.50;;;;;;4972591;28;20472;-56
2021/09/15 07:16:04;;;;;;;19.47;18.00;;;30.80;92.10;;;;;;4975798;28;20449;-53
2021/09/15 07:18:32;;;;;;;16.93;15.60;;;30.20;92.30;;;;;;4972419;28;20707;-52
2021/09/15 07:20:59;;;;;;;18.30;17.00;;;30.10;93.10;;;;;;4976001;28;20489;-55
2021/09/15 07:23:31;;;;;;;19.10;17.73;;;31.10;91.70;;;;;;4968893;28;20435;-53
2021/09/15 07:25:58;;;;;;;19.77;17.83;;;31.70;90.70;;;;;;4974660;28;20549;-52
2021/09/15 07:28:26;;;;;;;19.17;17.57;;;32.30;89.30;;;;;;4971336;28;20514;-54
2021/09/15 07:30:53;;;;;;;19.50;18.10;;;32.60;88.70;;;;;;4974138;28;20464;-56
2021/09/15 07:33:20;;;;;;;18.17;16.97;;;33.10;85.80;;;;;;4972976;28;20440;-55
2021/09/15 07:35:47;;;;;;;19.40;18.10;;;33.60;84.80;;;;;;4973808;28;20440;-53
2021/09/15 07:38:14;;;;;;;19.97;18.40;;;33.80;83.70;;;;;;4975979;28;20452;-53
2021/09/15 07:40:41;;;;;;;18.60;17.00;;;34.10;83.00;;;;;;4967676;28;20461;-55
2021/09/15 07:43:08;;;;;;;19.20;17.90;;;34.90;80.80;;;;;;4975224;28;20480;-57
2021/09/15 07:45:36;;;;;;;18.00;16.80;;;34.80;78.20;;;;;;4974438;28;20492;-56
2021/09/15 07:48:03;;;;;;;17.70;16.40;;;34.90;77.70;;;;;;4976565;28;20491;-55
2021/09/15 07:50:31;;;;;;;18.57;17.17;;;34.80;76.20;;;;;;4975445;28;20496;-55
2021/09/15 07:52:58;;;;;;;18.17;16.97;;;34.90;77.00;;;;;;4975632;28;20440;-56
2021/09/15 07:55:25;;;;;;;18.67;17.37;;;33.90;78.30;;;;;;4976052;28;20679;-55
2021/09/15 07:57:53;;;;;;;19.87;18.47;;;33.80;78.00;;;;;;4979002;28;20495;-57
2021/09/15 08:00:21;;;;;;;17.67;16.47;;;33.30;79.70;;;;;;4973002;28;20484;-53
2021/09/15 08:02:48;;;;;;;16.60;15.40;;;32.40;81.70;;;;;;4978453;28;20533;-54
2021/09/15 08:05:16;;;;;;;17.23;16.03;;;30.60;86.30;;;;;;4979596;28;20670;-55
2021/09/15 08:07:43;;;;;;;17.73;16.50;;;31.80;85.20;;;;;;4978130;28;20488;-54
2021/09/15 08:10:11;;;;;;;17.20;16.00;;;32.70;82.40;;;;;;4978602;28;20718;-51
2021/09/15 08:12:38;;;;;;;17.43;16.17;;;33.20;81.80;;;;;;4972058;28;20679;-51
2021/09/15 08:15:06;;;;;;;16.40;15.40;;;32.70;80.70;;;;;;4973187;28;20445;-55
2021/09/15 08:17:33;;;;;;;16.60;15.50;;;33.30;82.30;;;;;;4972279;28;20490;-57
2021/09/15 08:20:03;;;;;;;18.20;16.97;;;34.00;79.00;;;;;;4974686;28;20441;-54
2021/09/15 08:22:30;;;;;;;16.50;15.30;;;34.40;78.50;;;;;;4972933;28;20503;-56
2021/09/15 08:24:57;;;;;;;17.33;15.90;;;33.40;80.70;;;;;;4968331;28;20448;-53
2021/09/15 08:27:24;;;;;;;15.77;14.77;;;33.10;81.20;;;;;;4974231;28;20433;-54
2021/09/15 08:29:53;;;;;;;15.47;14.37;;;33.10;79.40;;;;;;4970692;28;20503;-57
2021/09/15 08:32:20;;;;;;;16.00;14.90;;;33.00;78.90;;;;;;4966858;28;20865;-56
2021/09/15 08:34:47;;;;;;;17.00;15.70;;;33.10;79.10;;;;;;4972162;28;20494;-54
2021/09/15 08:37:14;;;;;;;15.50;14.50;;;33.30;79.90;;;;;;4975005;28;20475;-54
2021/09/15 08:39:41;;;;;;;15.80;14.80;;;33.70;79.30;;;;;;4973328;28;20448;-57
2021/09/15 08:42:11;;;;;;;16.33;15.33;;;33.50;79.60;;;;;;4967780;28;20488;-54
2021/09/15 08:44:38;;;;;;;15.60;14.63;;;33.60;78.90;;;;;;4974508;28;20445;-58
2021/09/15 08:47:06;;;;;;;15.63;14.83;;;33.50;78.20;;;;;;4970115;28;20453;-59
2021/09/15 08:49:36;;;;;;;15.00;14.00;;;33.30;78.80;;;;;;4974935;28;20518;-55
2021/09/15 08:52:03;;;;;;;15.10;14.07;;;32.70;79.30;;;;;;4971577;28;20486;-57
2021/09/15 08:54:30;;;;;;;14.90;14.00;;;32.20;81.40;;;;;;4975858;28;20447;-53
2021/09/15 08:56:57;;;;;;;13.40;12.70;;;32.70;80.50;;;;;;4975686;28;20501;-52
2021/09/15 08:59:24;;;;;;;14.97;13.87;;;33.10;80.00;;;;;;4980244;28;20483;-56
2021/09/15 09:02:08;;;;;;;15.60;14.50;;;33.00;78.70;;;;;;4977437;28;20836;-56
2021/09/15 09:04:53;;;;;;;14.63;13.70;;;32.60;79.70;;;;;;4976104;28;20520;-58
2021/09/15 09:07:22;;;;;;;12.93;12.13;;;32.70;81.80;;;;;;4974322;28;20451;-56
2021/09/15 09:09:55;;;;;;;14.70;13.80;;;32.50;79.60;;;;;;4981767;28;20410;-56
2021/09/15 09:12:24;;;;;;;15.00;13.67;;;32.20;80.80;;;;;;4967267;28;20501;-57
2021/09/15 09:14:52;;;;;;;13.73;12.60;;;32.10;81.50;;;;;;4976319;28;20521;-55
2021/09/15 09:17:31;;;;;;;13.13;12.30;;;30.60;85.90;;;;;;4967817;28;20659;-55
2021/09/15 09:20:20;;;;;;;13.93;12.93;;;30.30;87.20;;;;;;4977386;28;20527;-57
2021/09/15 09:23:11;;;;;;;12.30;11.60;;;30.20;87.70;;;;;;4976026;28;20536;-54
2021/09/15 09:25:53;;;;;;;13.17;12.27;;;29.70;90.10;;;;;;4974298;28;20440;-56
2021/09/15 09:28:40;;;;;;;13.40;12.37;;;29.30;90.20;;;;;;4972410;28;20441;-55
2021/09/15 09:31:10;;;;;;;12.73;11.63;;;28.80;91.00;;;;;;4979638;28;20519;-57
2021/09/15 09:33:37;;;;;;;14.93;13.73;;;29.00;91.30;;;;;;4973670;28;20706;-53
2021/09/15 09:36:07;;;;;;;13.60;12.50;;;29.20;90.70;;;;;;4978730;28;20440;-54
2021/09/15 09:38:38;;;;;;;13.70;12.80;;;29.30;90.40;;;;;;4974991;28;20635;-55
2021/09/15 09:41:07;;;;;;;12.20;11.20;;;29.10;90.90;;;;;;4971304;28;20461;-53
2021/09/15 09:43:38;;;;;;;12.20;11.23;;;28.30;92.40;;;;;;4976435;28;20588;-57
2021/09/15 09:46:07;;;;;;;10.07;9.47;;;27.70;92.40;;;;;;4972086;28;20505;-55
2021/09/15 09:48:46;;;;;;;10.97;10.07;;;27.20;93.10;;;;;;4978202;28;20450;-55
2021/09/15 09:51:30;;;;;;;10.63;9.83;;;27.00;93.60;;;;;;4974112;28;20466;-53
2021/09/15 09:54:19;;;;;;;10.13;9.50;;;27.00;94.40;;;;;;4977183;28;20435;-51
2021/09/15 09:56:49;;;;;;;9.60;8.97;;;27.00;94.40;;;;;;4975256;28;20465;-56
2021/09/15 09:59:17;;;;;;;10.90;10.07;;;26.90;93.80;;;;;;4970912;28;20446;-57
2021/09/15 10:01:54;;;;;;;10.07;9.27;;;27.00;95.00;;;;;;4975919;28;20591;-53
2021/09/15 10:04:22;;;;;;;10.47;9.60;;;27.20;94.20;;;;;;4976430;28;20772;-58
2021/09/15 10:06:49;;;;;;;17.47;15.93;;;27.60;93.90;;;;;;4973128;28;20414;-57
2021/09/15 10:09:17;;;;;;;10.00;9.40;;;27.90;94.10;;;;;;4978323;28;20440;-57
2021/09/15 10:11:44;;;;;;;10.40;9.60;;;27.70;93.10;;;;;;4969794;28;20472;-56
2021/09/15 10:14:17;;;;;;;9.83;9.23;;;27.60;94.00;;;;;;4978211;28;20440;-58
2021/09/15 10:16:54;;;;;;;9.83;9.23;;;27.50;93.90;;;;;;4971604;28;20514;-57
2021/09/15 10:19:28;;;;;;;10.70;10.00;;;27.50;93.50;;;;;;4972632;28;20434;-54
2021/09/15 10:21:59;;;;;;;11.00;10.20;;;27.50;94.20;;;;;;4971840;28;20461;-58
2021/09/15 10:24:48;;;;;;;10.37;9.70;;;27.30;94.50;;;;;;4972916;28;20503;-53
2021/09/15 10:27:17;;;;;;;10.70;9.83;;;27.40;94.70;;;;;;4975833;28;20438;-56
2021/09/15 10:30:03;;;;;;;9.47;8.87;;;27.60;93.60;;;;;;4973263;28;20438;-52
2021/09/15 10:32:36;;;;;;;10.07;9.37;;;27.50;94.30;;;;;;4969824;28;20460;-58
2021/09/15 10:35:05;;;;;;;9.53;8.93;;;27.60;94.50;;;;;;4973509;28;20417;-57
2021/09/15 10:37:33;;;;;;;9.00;8.50;;;27.40;94.30;;;;;;4978179;28;20429;-58
2021/09/15 10:40:04;;;;;;;9.63;9.03;;;27.30;94.20;;;;;;4973529;28;20459;-51
2021/09/15 10:42:34;;;;;;;9.87;9.17;;;27.20;94.60;;;;;;4971569;28;20581;-54
2021/09/15 10:45:16;;;;;;;9.53;8.87;;;27.30;94.20;;;;;;4975245;28;20442;-51
2021/09/15 10:47:55;;;;;;;9.77;9.20;;;27.40;94.50;;;;;;4974384;28;20455;-55
2021/09/15 10:50:29;;;;;;;10.60;9.50;;;27.40;94.50;;;;;;4972636;28;20417;-58
2021/09/15 10:53:10;;;;;;;9.87;9.27;;;27.50;94.20;;;;;;4976366;28;20471;-51
2021/09/15 10:55:46;;;;;;;9.50;8.90;;;27.50;94.40;;;;;;4973447;28;20419;-57
2021/09/15 10:58:16;;;;;;;8.17;7.77;;;27.60;95.10;;;;;;4971596;28;20680;-55
2021/09/15 11:00:58;;;;;;;11.97;11.07;;;28.00;94.60;;;;;;4973990;28;20491;-57
2021/09/15 11:03:34;;;;;;;8.77;8.30;;;28.40;94.50;;;;;;4968406;28;20819;-56
2021/09/15 11:06:08;;;;;;;11.53;10.53;;;28.60;94.00;;;;;;4973147;28;20639;-55
2021/09/15 11:08:46;;;;;;;9.90;9.20;;;28.80;93.40;;;;;;4973512;28;20474;-52
2021/09/15 11:11:20;;;;;;;9.73;9.23;;;28.90;92.60;;;;;;4973039;28;20468;-57
2021/09/15 11:14:07;;;;;;;9.57;8.97;;;29.10;92.90;;;;;;4974193;28;20766;-57
2021/09/15 11:16:36;;;;;;;9.10;8.60;;;29.00;91.80;;;;;;4972344;28;20491;-56
2021/09/15 11:19:11;;;;;;;9.33;8.77;;;28.80;93.10;;;;;;4976269;28;20452;-54
2021/09/15 11:21:53;;;;;;;10.17;9.57;;;28.70;92.60;;;;;;4972376;28;20461;-57
2021/09/15 11:24:23;;;;;;;10.00;9.40;;;28.60;91.50;;;;;;4964656;28;20499;-51
2021/09/15 11:26:50;;;;;;;9.60;9.10;;;28.90;92.00;;;;;;4972919;28;20423;-56
2021/09/15 11:29:40;;;;;;;10.97;10.27;;;28.90;91.40;;;;;;4972219;28;20487;-56
2021/09/15 11:32:12;;;;;;;10.90;10.20;;;28.80;92.80;;;;;;4974060;28;20500;-55
2021/09/15 11:34:51;;;;;;;14.97;13.80;;;28.90;92.70;;;;;;4973069;28;20415;-56
2021/09/15 11:37:25;;;;;;;10.53;9.93;;;29.10;93.00;;;;;;4969119;28;20495;-58
2021/09/15 11:40:00;;;;;;;10.03;9.33;;;28.90;91.10;;;;;;4974031;28;20456;-58
2021/09/15 11:42:35;;;;;;;10.67;10.07;;;28.90;92.00;;;;;;4970385;28;20476;-56
2021/09/15 11:45:19;;;;;;;9.47;8.87;;;29.10;91.60;;;;;;4973843;28;20435;-57
2021/09/15 11:47:52;;;;;;;9.70;9.20;;;29.30;91.20;;;;;;4973689;28;20448;-59
2021/09/15 11:50:33;;;;;;;9.53;8.83;;;29.10;91.10;;;;;;4973581;28;20428;-59
2021/09/15 11:53:06;;;;;;;10.50;9.67;;;28.90;90.00;;;;;;4975845;28;20448;-58
2021/09/15 11:55:42;;;;;;;9.40;8.90;;;28.80;90.10;;;;;;4972960;28;20483;-55
2021/09/15 11:58:09;;;;;;;9.23;8.83;;;28.90;90.20;;;;;;4970007;28;20756;-56
2021/09/15 12:00:40;;;;;;;9.43;8.83;;;28.70;92.00;;;;;;4974440;28;20483;-53
2021/09/15 12:03:12;;;;;;;10.17;9.50;;;28.70;90.00;;;;;;4972920;28;20507;-54
2021/09/15 12:05:43;;;;;;;8.30;7.80;;;28.70;90.70;;;;;;4973579;28;20768;-53
2021/09/15 12:08:12;;;;;;;10.10;9.50;;;29.00;90.20;;;;;;4970799;28;20443;-56
2021/09/15 12:10:39;;;;;;;10.87;10.27;;;28.50;89.50;;;;;;4974262;28;20497;-53
2021/09/15 12:13:07;;;;;;;10.60;10.00;;;28.20;90.90;;;;;;4969534;28;20790;-59
2021/09/15 12:15:48;;;;;;;10.63;9.90;;;28.20;90.90;;;;;;4975222;28;20511;-52
2021/09/15 12:18:21;;;;;;;10.93;10.30;;;28.20;90.00;;;;;;4972455;28;20764;-54
2021/09/15 12:20:50;;;;;;;11.20;10.60;;;28.00;90.20;;;;;;4975947;28;20481;-54
2021/09/15 12:23:31;;;;;;;10.07;9.47;;;27.80;90.30;;;;;;4970860;28;20487;-56
2021/09/15 12:26:04;;;;;;;10.57;9.97;;;27.80;90.70;;;;;;4975058;28;20431;-55
2021/09/15 12:28:33;;;;;;;11.67;10.93;;;27.70;91.00;;;;;;4970874;28;20528;-55
2021/09/15 12:31:04;;;;;;;10.90;10.20;;;27.90;90.90;;;;;;4977888;28;20490;-54
2021/09/15 12:33:38;;;;;;;10.13;9.43;;;27.90;91.00;;;;;;4975894;28;20695;-56
2021/09/15 12:36:17;;;;;;;10.27;9.70;;;28.10;90.70;;;;;;4980712;28;20696;-57
2021/09/15 12:38:57;;;;;;;9.63;9.03;;;28.20;90.60;;;;;;4975354;28;20469;-53
2021/09/15 12:41:26;;;;;;;9.63;9.03;;;28.30;91.00;;;;;;4967753;28;20499;-51
2021/09/15 12:44:04;;;;;;;10.70;10.10;;;28.30;91.60;;;;;;4975767;28;20531;-55
2021/09/15 12:46:31;;;;;;;10.30;9.70;;;28.30;90.40;;;;;;4970157;28;20647;-58
2021/09/15 12:48:59;;;;;;;10.80;10.00;;;28.50;89.40;;;;;;4977339;28;20457;-54
2021/09/15 12:51:28;;;;;;;9.63;9.03;;;28.60;90.40;;;;;;4976056;28;20523;-55